Time;durP1;ratioP1;P1;durP2;ratioP2;P2;SDS_P1;SDS_P2;PMS_P1;PMS_P2;Temp;Humidity;BMP_temperature;BMP_pressure;BME280_temperature;BME280_humidity;BME280_pressure;Samples;Min_cycle;Max_cycle;Signal;HPM_P1;HPM_P2
2021/05/30 00:00:09;;;;;;;1.50;1.10;;;12.00;97.80;;;;;;5000738;28;20465;-81
2021/05/30 00:02:35;;;;;;;1.50;1.10;;;12.00;98.20;;;;;;5003273;28;20960;-82
2021/05/30 00:05:01;;;;;;;1.50;1.10;;;11.90;98.20;;;;;;5001431;28;20462;-81
2021/05/30 00:07:28;;;;;;;1.50;1.10;;;11.90;98.00;;;;;;5003176;28;20880;-81
2021/05/30 00:09:54;;;;;;;1.50;1.10;;;11.90;98.20;;;;;;4999571;28;20493;-83
2021/05/30 00:12:22;;;;;;;1.50;1.10;;;11.90;98.20;;;;;;4997884;28;20976;-82
2021/05/30 00:14:48;;;;;;;1.50;1.10;;;11.90;98.20;;;;;;5001010;28;20515;-83
2021/05/30 00:17:15;;;;;;;1.50;1.20;;;11.80;98.20;;;;;;5001402;28;20480;-81
2021/05/30 00:19:42;;;;;;;1.50;1.20;;;11.80;97.90;;;;;;4997742;28;20655;-82
2021/05/30 00:22:08;;;;;;;1.50;1.10;;;11.80;98.20;;;;;;4997106;28;20784;-80
2021/05/30 00:24:35;;;;;;;1.50;1.10;;;11.70;98.20;;;;;;5004097;28;20960;-80
2021/05/30 00:27:01;;;;;;;1.50;1.20;;;11.70;98.20;;;;;;4997644;28;20480;-80
2021/05/30 00:29:28;;;;;;;1.50;1.10;;;11.60;98.20;;;;;;5000769;28;21213;-82
2021/05/30 00:31:54;;;;;;;1.50;1.10;;;11.60;98.20;;;;;;4994416;28;20597;-81
2021/05/30 00:34:21;;;;;;;1.50;1.10;;;11.60;98.20;;;;;;5003192;28;20465;-81
2021/05/30 00:36:47;;;;;;;1.50;1.10;;;11.50;98.20;;;;;;4995721;28;21076;-81
2021/05/30 00:39:13;;;;;;;1.50;1.10;;;11.50;98.20;;;;;;5002967;28;20881;-80
2021/05/30 00:41:40;;;;;;;1.50;1.10;;;11.50;98.20;;;;;;4995149;28;21041;-80
2021/05/30 00:44:20;;;;;;;1.50;1.10;;;11.50;98.20;;;;;;5003235;28;20487;-80
2021/05/30 00:46:47;;;;;;;1.50;1.10;;;11.40;98.20;;;;;;5000421;28;20508;-81
2021/05/30 00:49:13;;;;;;;1.50;1.10;;;11.40;98.20;;;;;;5002323;28;20545;-81
2021/05/30 00:51:40;;;;;;;2.03;1.83;;;11.40;98.20;;;;;;4992244;28;20480;-81
2021/05/30 00:54:07;;;;;;;1.53;1.20;;;11.30;98.20;;;;;;5000341;28;20971;-80
2021/05/30 00:56:34;;;;;;;1.50;1.10;;;11.30;98.20;;;;;;4993035;28;20506;-80
2021/05/30 00:59:00;;;;;;;1.50;1.10;;;11.30;98.20;;;;;;5002577;28;20465;-80
2021/05/30 01:01:27;;;;;;;1.50;1.10;;;11.20;98.20;;;;;;4989857;28;20563;-80
2021/05/30 01:03:54;;;;;;;1.50;1.20;;;11.20;98.20;;;;;;5006742;28;20553;-81
2021/05/30 01:06:23;;;;;;;1.50;1.20;;;11.20;98.20;;;;;;4988332;28;20964;-82
2021/05/30 01:08:49;;;;;;;1.50;1.10;;;11.10;98.20;;;;;;5007180;28;20465;-80
2021/05/30 01:11:17;;;;;;;1.50;1.10;;;11.10;98.20;;;;;;4990698;28;21014;-80
2021/05/30 01:13:44;;;;;;;1.50;1.10;;;11.10;98.20;;;;;;5041046;23;20507;-83
2021/05/30 01:16:13;;;;;;;1.50;1.10;;;11.10;98.20;;;;;;5019990;28;20475;-83
2021/05/30 01:18:40;;;;;;;1.50;1.10;;;11.00;98.20;;;;;;5033237;28;20959;-81
2021/05/30 01:21:08;;;;;;;1.50;1.10;;;11.00;98.20;;;;;;5010801;28;20468;-83
2021/05/30 01:23:35;;;;;;;1.50;1.10;;;11.00;98.20;;;;;;5034305;28;20881;-81
2021/05/30 01:26:01;;;;;;;1.50;1.10;;;11.00;98.20;;;;;;5004856;28;20522;-82
2021/05/30 01:28:28;;;;;;;1.50;1.10;;;10.90;98.20;;;;;;5031177;28;20460;-82
2021/05/30 01:30:54;;;;;;;1.50;1.10;;;10.90;98.20;;;;;;5008754;28;20476;-82
2021/05/30 01:33:20;;;;;;;1.50;1.10;;;10.90;98.20;;;;;;5029897;28;20479;-82
2021/05/30 01:35:46;;;;;;;1.50;1.10;;;10.80;98.20;;;;;;5015870;28;20474;-82
2021/05/30 01:38:13;;;;;;;1.50;1.10;;;10.80;98.20;;;;;;5029512;28;20479;-82
2021/05/30 01:40:41;;;;;;;1.50;1.20;;;10.80;98.20;;;;;;5022005;28;20476;-82
2021/05/30 01:43:07;;;;;;;1.50;1.17;;;10.70;98.20;;;;;;5021876;28;20516;-82
2021/05/30 01:45:34;;;;;;;1.50;1.20;;;10.70;98.20;;;;;;5019203;28;20559;-82
2021/05/30 01:48:01;;;;;;;1.50;1.10;;;10.70;98.20;;;;;;5017783;28;20517;-81
2021/05/30 01:50:30;;;;;;;1.50;1.20;;;10.70;98.20;;;;;;5019180;28;20468;-82
2021/05/30 01:52:59;;;;;;;1.50;1.10;;;10.60;98.20;;;;;;5018749;28;20533;-81
2021/05/30 01:55:28;;;;;;;1.50;1.10;;;10.60;98.20;;;;;;5020068;28;20460;-81
2021/05/30 01:57:57;;;;;;;1.50;1.10;;;10.60;98.20;;;;;;5021071;28;20479;-82
2021/05/30 02:00:24;;;;;;;1.50;1.10;;;10.50;98.20;;;;;;5016569;28;20552;-82
2021/05/30 02:02:52;;;;;;;1.50;1.20;;;10.50;98.20;;;;;;5019591;28;20890;-82
2021/05/30 02:05:19;;;;;;;1.50;1.00;;;10.50;98.20;;;;;;5021946;28;20471;-82
2021/05/30 02:07:47;;;;;;;1.50;1.10;;;10.50;98.20;;;;;;5021176;28;20528;-82
2021/05/30 02:10:14;;;;;;;1.50;1.10;;;10.40;98.20;;;;;;5020417;28;20456;-82
2021/05/30 02:12:42;;;;;;;1.50;1.10;;;10.40;98.20;;;;;;5019547;28;21200;-82
2021/05/30 02:15:11;;;;;;;1.57;1.20;;;10.40;98.20;;;;;;5017615;28;20452;-82
2021/05/30 02:17:37;;;;;;;1.53;1.20;;;10.40;98.20;;;;;;5016500;28;20483;-82
2021/05/30 02:20:06;;;;;;;1.50;1.20;;;10.40;98.20;;;;;;5014479;28;20476;-82
2021/05/30 02:22:32;;;;;;;1.50;1.20;;;10.30;98.20;;;;;;5017580;28;20483;-82
2021/05/30 02:24:59;;;;;;;1.50;1.20;;;10.30;98.20;;;;;;5017989;28;20467;-82
2021/05/30 02:27:25;;;;;;;1.50;1.10;;;10.30;98.20;;;;;;5017649;28;20489;-81
2021/05/30 02:29:52;;;;;;;1.50;1.10;;;10.30;98.20;;;;;;5016973;28;20463;-81
2021/05/30 02:32:19;;;;;;;1.50;1.10;;;10.20;98.20;;;;;;5018475;28;20495;-81
2021/05/30 02:34:45;;;;;;;1.50;1.10;;;10.20;98.20;;;;;;5012734;28;20471;-81
2021/05/30 02:37:15;;;;;;;1.50;1.20;;;10.20;98.20;;;;;;5014386;28;20474;-81
2021/05/30 02:39:41;;;;;;;1.50;1.20;;;10.20;98.20;;;;;;5018139;28;20464;-81
2021/05/30 02:42:09;;;;;;;1.50;1.20;;;10.20;98.20;;;;;;5011904;28;20513;-81
2021/05/30 02:44:36;;;;;;;1.50;1.20;;;10.10;98.20;;;;;;5019519;28;20484;-81
2021/05/30 02:47:03;;;;;;;1.50;1.10;;;10.10;98.20;;;;;;5016517;28;20551;-81
2021/05/30 02:49:30;;;;;;;1.50;1.20;;;10.10;98.20;;;;;;5015435;28;20490;-81
2021/05/30 02:51:56;;;;;;;1.50;1.10;;;10.10;98.20;;;;;;5015184;28;20487;-81
2021/05/30 02:54:23;;;;;;;1.50;1.20;;;10.10;98.20;;;;;;5017655;28;20460;-81
2021/05/30 02:56:49;;;;;;;1.50;1.30;;;10.10;98.20;;;;;;5009453;28;20475;-81
2021/05/30 02:59:16;;;;;;;1.53;1.10;;;10.00;98.20;;;;;;5021272;28;20920;-81
2021/05/30 03:01:43;;;;;;;1.50;1.10;;;10.00;98.20;;;;;;5011863;28;20501;-81
2021/05/30 03:04:09;;;;;;;1.50;1.27;;;10.00;98.20;;;;;;5019512;28;20542;-81
2021/05/30 03:06:36;;;;;;;1.50;1.10;;;10.00;98.20;;;;;;5009861;28;20537;-81
2021/05/30 03:09:03;;;;;;;1.50;1.10;;;10.00;98.20;;;;;;5022034;28;20575;-81
2021/05/30 03:11:30;;;;;;;1.57;1.17;;;10.00;98.20;;;;;;5011484;28;20525;-80
2021/05/30 03:13:57;;;;;;;1.50;1.20;;;10.00;98.20;;;;;;5029208;28;20491;-80
2021/05/30 03:16:24;;;;;;;1.50;1.20;;;9.90;98.20;;;;;;5014580;28;21020;-80
2021/05/30 03:18:50;;;;;;;1.50;1.20;;;9.90;98.20;;;;;;5026606;28;20845;-80
2021/05/30 03:21:17;;;;;;;1.50;1.10;;;9.90;98.20;;;;;;5007105;28;20993;-80
2021/05/30 03:23:45;;;;;;;1.57;1.30;;;9.90;98.20;;;;;;5027558;28;20545;-80
2021/05/30 03:26:11;;;;;;;1.50;1.20;;;9.90;98.20;;;;;;5009709;28;20463;-80
2021/05/30 03:28:38;;;;;;;1.50;1.20;;;9.80;98.20;;;;;;5033389;28;20817;-81
2021/05/30 03:31:05;;;;;;;1.53;1.20;;;9.80;98.20;;;;;;5007542;28;20463;-80
2021/05/30 03:33:31;;;;;;;1.50;1.20;;;9.80;98.20;;;;;;5030463;28;20479;-80
2021/05/30 03:36:00;;;;;;;1.50;1.20;;;9.80;98.20;;;;;;5006128;28;20483;-80
2021/05/30 03:38:28;;;;;;;1.50;1.20;;;9.80;98.20;;;;;;5028586;28;20493;-81
2021/05/30 03:41:01;;;;;;;1.57;1.20;;;9.80;98.20;;;;;;5006910;28;20495;-80
2021/05/30 03:43:28;;;;;;;1.50;1.23;;;9.80;98.20;;;;;;5031424;28;20845;-80
2021/05/30 03:45:55;;;;;;;1.50;1.20;;;9.80;98.20;;;;;;5008657;28;20463;-80
2021/05/30 03:48:21;;;;;;;1.50;1.10;;;9.80;98.20;;;;;;5031367;28;20482;-80
2021/05/30 03:50:49;;;;;;;1.53;1.27;;;9.80;98.20;;;;;;5011639;28;20463;-80
2021/05/30 03:53:16;;;;;;;1.50;1.10;;;9.80;98.20;;;;;;5033603;28;20483;-81
2021/05/30 03:55:43;;;;;;;1.50;1.20;;;9.80;98.20;;;;;;5014555;28;20498;-80
2021/05/30 03:58:10;;;;;;;1.53;1.30;;;9.80;98.20;;;;;;5019726;28;20533;-79
2021/05/30 04:00:37;;;;;;;1.50;1.20;;;9.80;98.20;;;;;;5017487;28;20456;-81
2021/05/30 04:03:03;;;;;;;1.50;1.10;;;9.80;98.20;;;;;;5018974;28;20475;-80
2021/05/30 04:05:29;;;;;;;1.50;1.20;;;9.80;98.20;;;;;;5016651;28;20467;-81
2021/05/30 04:07:56;;;;;;;1.50;1.30;;;9.80;98.20;;;;;;5019195;28;20529;-80
2021/05/30 04:10:22;;;;;;;1.50;1.13;;;9.80;98.20;;;;;;5022133;28;20460;-80
2021/05/30 04:12:48;;;;;;;1.50;1.17;;;9.80;98.20;;;;;;5020418;28;20483;-80
2021/05/30 04:15:16;;;;;;;1.50;1.20;;;9.80;98.20;;;;;;5016082;28;20460;-79
2021/05/30 04:17:43;;;;;;;1.50;1.20;;;9.80;98.20;;;;;;5017623;28;20982;-80
2021/05/30 04:20:13;;;;;;;1.50;1.20;;;9.90;98.20;;;;;;5015978;28;20897;-81
2021/05/30 04:22:40;;;;;;;1.50;1.10;;;9.90;98.20;;;;;;5020110;28;20493;-80
2021/05/30 04:25:09;;;;;;;1.50;1.10;;;9.90;98.20;;;;;;5017501;28;20464;-80
2021/05/30 04:27:36;;;;;;;1.50;1.10;;;9.90;98.20;;;;;;5017573;28;20870;-80
2021/05/30 04:30:03;;;;;;;1.50;1.10;;;10.00;98.20;;;;;;5015999;28;20499;-80
2021/05/30 04:32:30;;;;;;;1.50;1.20;;;10.00;98.20;;;;;;5018094;28;21113;-81
2021/05/30 04:34:57;;;;;;;1.53;1.23;;;10.00;98.20;;;;;;5017841;28;20460;-81
2021/05/30 04:37:23;;;;;;;1.50;1.10;;;10.00;98.20;;;;;;5018143;28;20509;-79
2021/05/30 04:39:49;;;;;;;1.50;1.10;;;10.10;98.20;;;;;;5020332;28;21014;-80
2021/05/30 04:42:15;;;;;;;1.50;1.20;;;10.10;98.20;;;;;;5007612;28;21479;-80
2021/05/30 04:44:42;;;;;;;1.50;1.10;;;10.20;98.20;;;;;;5008821;28;20578;-79
2021/05/30 04:47:08;;;;;;;1.50;1.10;;;10.30;98.20;;;;;;5012508;28;21073;-79
2021/05/30 04:49:35;;;;;;;1.50;1.10;;;10.50;98.20;;;;;;5016170;28;20623;-79
2021/05/30 04:52:02;;;;;;;1.50;1.10;;;10.70;98.20;;;;;;5010945;28;20541;-80
2021/05/30 04:54:28;;;;;;;1.53;1.20;;;10.90;98.20;;;;;;5017780;28;20958;-80
2021/05/30 04:56:54;;;;;;;1.60;1.20;;;11.20;98.20;;;;;;5010646;28;20490;-80
2021/05/30 04:59:20;;;;;;;1.53;1.20;;;11.40;98.20;;;;;;5017477;28;20572;-80
2021/05/30 05:01:47;;;;;;;1.50;1.10;;;11.70;98.20;;;;;;5009416;28;20529;-80
2021/05/30 05:04:13;;;;;;;1.60;1.10;;;11.90;98.20;;;;;;5018694;28;20574;-80
2021/05/30 05:06:40;;;;;;;1.50;1.00;;;12.00;98.20;;;;;;5009506;28;20910;-80
2021/05/30 05:09:06;;;;;;;1.50;1.00;;;12.20;98.20;;;;;;5020170;28;20849;-81
2021/05/30 05:11:33;;;;;;;1.50;1.10;;;12.40;98.20;;;;;;5007175;28;20499;-80
2021/05/30 05:14:00;;;;;;;1.50;1.00;;;12.60;98.20;;;;;;5021590;28;20492;-80
2021/05/30 05:16:26;;;;;;;1.50;1.00;;;12.80;98.20;;;;;;5007398;28;20869;-80
2021/05/30 05:18:53;;;;;;;1.50;1.10;;;13.00;98.20;;;;;;5021546;28;20490;-80
2021/05/30 05:21:19;;;;;;;1.53;1.13;;;13.10;98.20;;;;;;5006714;28;20835;-81
2021/05/30 05:23:46;;;;;;;1.50;1.00;;;13.20;98.20;;;;;;5023426;28;20492;-80
2021/05/30 05:26:13;;;;;;;1.50;1.10;;;13.30;98.20;;;;;;5001964;28;21129;-79
2021/05/30 05:28:39;;;;;;;1.50;1.00;;;13.50;98.20;;;;;;5021311;28;20853;-79
2021/05/30 05:31:05;;;;;;;1.50;1.00;;;13.80;98.20;;;;;;5003525;28;21060;-80
2021/05/30 05:33:32;;;;;;;1.50;1.00;;;14.10;97.20;;;;;;5023725;28;20483;-80
2021/05/30 05:35:58;;;;;;;1.50;1.00;;;14.20;97.50;;;;;;5002078;28;20468;-81
2021/05/30 05:38:24;;;;;;;1.50;1.00;;;14.30;95.90;;;;;;5025414;28;20467;-79
2021/05/30 05:40:52;;;;;;;1.50;1.00;;;14.30;95.70;;;;;;5002555;28;20521;-81
2021/05/30 05:43:18;;;;;;;1.50;1.00;;;14.40;96.70;;;;;;5027132;28;20990;-81
2021/05/30 05:45:44;;;;;;;1.50;0.90;;;14.40;95.90;;;;;;5012683;28;20547;-80
2021/05/30 05:48:12;;;;;;;2.43;2.23;;;14.40;96.00;;;;;;5015981;28;20498;-81
2021/05/30 05:50:38;;;;;;;1.50;1.00;;;14.30;96.00;;;;;;5014737;28;20559;-81
2021/05/30 05:53:05;;;;;;;1.50;1.10;;;14.50;96.70;;;;;;5015958;28;20505;-82
2021/05/30 05:55:32;;;;;;;1.50;1.00;;;14.50;96.40;;;;;;5011544;28;20480;-80
2021/05/30 05:57:59;;;;;;;1.57;1.00;;;14.80;95.90;;;;;;5018847;28;20544;-80
2021/05/30 06:00:26;;;;;;;1.50;1.00;;;14.90;94.60;;;;;;5016978;28;20955;-82
2021/05/30 06:02:53;;;;;;;1.50;1.00;;;15.00;94.00;;;;;;5015842;28;20517;-81
2021/05/30 06:05:21;;;;;;;1.50;1.10;;;15.20;93.50;;;;;;5011090;28;20456;-81
2021/05/30 06:07:48;;;;;;;1.50;1.00;;;15.50;93.00;;;;;;5016057;28;20634;-81
2021/05/30 06:10:16;;;;;;;1.50;1.00;;;15.70;91.70;;;;;;5012308;28;20511;-82
2021/05/30 06:12:43;;;;;;;1.50;0.90;;;16.00;91.50;;;;;;5015504;28;20487;-81
2021/05/30 06:15:11;;;;;;;1.50;1.00;;;16.20;89.80;;;;;;5014162;28;20935;-82
2021/05/30 06:17:38;;;;;;;1.50;1.00;;;16.40;88.30;;;;;;5018363;28;20487;-83
2021/05/30 06:20:06;;;;;;;1.50;1.00;;;16.50;88.10;;;;;;5014900;28;20475;-83
2021/05/30 06:22:32;;;;;;;1.50;1.00;;;16.50;87.50;;;;;;5018295;28;20491;-83
2021/05/30 06:24:59;;;;;;;1.50;1.10;;;16.50;86.70;;;;;;5015558;28;20570;-83
2021/05/30 06:27:25;;;;;;;1.50;0.90;;;16.70;86.60;;;;;;5014447;28;20915;-81
2021/05/30 06:29:51;;;;;;;1.50;0.90;;;16.70;86.50;;;;;;5015872;28;20775;-82
2021/05/30 06:32:19;;;;;;;1.50;1.00;;;16.80;85.50;;;;;;5014298;28;20495;-82
2021/05/30 06:34:45;;;;;;;1.50;0.90;;;16.90;84.10;;;;;;5019931;28;20504;-82
2021/05/30 06:37:11;;;;;;;1.50;0.90;;;17.10;84.90;;;;;;5012437;28;20597;-82
2021/05/30 06:39:38;;;;;;;1.50;0.90;;;17.30;83.40;;;;;;5022658;28;20881;-81
2021/05/30 06:42:05;;;;;;;1.50;0.90;;;17.50;83.20;;;;;;5013785;28;20487;-81
2021/05/30 06:44:31;;;;;;;1.50;0.90;;;17.70;82.30;;;;;;5019519;28;20491;-81
2021/05/30 06:46:57;;;;;;;1.50;1.00;;;17.80;83.00;;;;;;5020561;28;20486;-82
2021/05/30 06:49:24;;;;;;;1.50;0.90;;;17.90;81.80;;;;;;5025252;28;20464;-82
2021/05/30 06:51:51;;;;;;;1.50;1.07;;;17.90;82.00;;;;;;5015247;28;20490;-82
2021/05/30 06:54:19;;;;;;;1.50;0.93;;;17.90;81.90;;;;;;5025448;28;20850;-83
2021/05/30 06:56:45;;;;;;;1.50;1.00;;;18.00;81.50;;;;;;5017750;28;20502;-83
2021/05/30 06:59:12;;;;;;;1.50;0.90;;;18.10;81.50;;;;;;5028322;28;20460;-83
2021/05/30 07:01:38;;;;;;;1.50;0.90;;;18.40;81.90;;;;;;5021590;28;20928;-82
2021/05/30 07:04:05;;;;;;;1.50;0.90;;;18.40;80.40;;;;;;5023992;28;20490;-80
2021/05/30 07:06:32;;;;;;;1.50;0.90;;;18.30;80.70;;;;;;5015302;28;20877;-83
2021/05/30 07:08:59;;;;;;;1.50;0.90;;;18.30;81.30;;;;;;5028745;28;20456;-83
2021/05/30 07:11:25;;;;;;;1.50;1.00;;;18.60;81.10;;;;;;5012048;28;20475;-83
2021/05/30 07:13:52;;;;;;;1.50;0.90;;;18.80;79.30;;;;;;5028687;28;20558;-82
2021/05/30 07:16:18;;;;;;;1.50;0.90;;;19.00;79.60;;;;;;5016359;28;21070;-82
2021/05/30 07:18:45;;;;;;;1.50;0.90;;;19.00;77.70;;;;;;5030158;28;20464;-82
2021/05/30 07:21:11;;;;;;;1.50;1.00;;;19.00;77.30;;;;;;5024438;28;20475;-82
2021/05/30 07:23:38;;;;;;;1.50;0.90;;;19.10;78.30;;;;;;5023857;28;21138;-82
2021/05/30 07:26:05;;;;;;;1.47;0.90;;;19.30;77.80;;;;;;5008668;28;20517;-83
2021/05/30 07:28:31;;;;;;;1.50;0.90;;;19.30;76.90;;;;;;5029783;28;20468;-83
2021/05/30 07:30:58;;;;;;;1.50;1.00;;;19.30;77.00;;;;;;5013371;28;20464;-83
2021/05/30 07:33:25;;;;;;;1.53;1.10;;;19.20;75.30;;;;;;5028770;28;20475;-82
2021/05/30 07:35:51;;;;;;;1.50;0.90;;;19.20;76.80;;;;;;5003594;28;20479;-83
2021/05/30 07:38:17;;;;;;;1.50;0.90;;;19.50;77.30;;;;;;5027936;28;20460;-82
2021/05/30 07:40:45;;;;;;;1.50;0.90;;;19.80;76.00;;;;;;5013543;28;20478;-84
2021/05/30 07:43:11;;;;;;;1.50;0.90;;;19.90;74.20;;;;;;5017032;28;20525;-80
2021/05/30 07:45:37;;;;;;;1.50;0.90;;;19.80;74.20;;;;;;5011847;28;20527;-84
2021/05/30 07:48:05;;;;;;;1.50;0.90;;;19.80;75.80;;;;;;5015946;28;20483;-83
2021/05/30 07:50:31;;;;;;;1.50;0.90;;;19.80;75.30;;;;;;5011768;28;20725;-83
2021/05/30 07:52:57;;;;;;;1.50;0.90;;;19.80;75.30;;;;;;5017649;28;20493;-84
2021/05/30 07:55:23;;;;;;;1.50;0.90;;;19.90;74.80;;;;;;5010794;28;20543;-83
2021/05/30 07:57:51;;;;;;;1.50;0.90;;;20.10;76.00;;;;;;5021644;28;20541;-84
2021/05/30 08:00:18;;;;;;;1.50;0.90;;;20.20;73.90;;;;;;5013794;28;20820;-82
2021/05/30 08:02:48;;;;;;;1.50;0.90;;;20.10;73.30;;;;;;5017044;28;20543;-83
2021/05/30 08:05:18;;;;;;;1.50;0.90;;;20.10;73.80;;;;;;5001871;28;20501;-82
2021/05/30 08:07:45;;;;;;;1.50;0.90;;;20.40;74.50;;;;;;5015951;28;20502;-81
2021/05/30 08:10:13;;;;;;;1.50;0.90;;;20.70;73.40;;;;;;5017542;28;20464;-82
2021/05/30 08:12:40;;;;;;;1.50;1.00;;;20.90;73.80;;;;;;5013215;28;20492;-81
2021/05/30 08:15:09;;;;;;;1.50;0.90;;;21.00;71.70;;;;;;5013252;28;20575;-81
2021/05/30 08:17:36;;;;;;;1.47;0.90;;;20.90;73.30;;;;;;5015775;28;21124;-82
2021/05/30 08:20:03;;;;;;;1.50;0.90;;;20.80;70.90;;;;;;5015885;28;20463;-82
2021/05/30 08:22:30;;;;;;;1.50;0.90;;;20.80;71.90;;;;;;5017623;28;20531;-82
2021/05/30 08:24:56;;;;;;;1.50;0.90;;;20.80;71.90;;;;;;5012858;28;20496;-82
2021/05/30 08:27:22;;;;;;;1.50;0.90;;;21.00;71.30;;;;;;5018122;28;20487;-82
2021/05/30 08:29:49;;;;;;;1.50;1.00;;;21.10;70.50;;;;;;5018513;28;20535;-81
2021/05/30 08:32:16;;;;;;;1.47;0.90;;;21.30;71.90;;;;;;5012925;28;21018;-83
2021/05/30 08:34:44;;;;;;;1.50;0.90;;;21.50;70.00;;;;;;5011406;28;20472;-83
2021/05/30 08:37:11;;;;;;;1.50;0.90;;;21.50;69.00;;;;;;5017094;28;20537;-82
2021/05/30 08:39:37;;;;;;;1.50;0.90;;;21.60;69.60;;;;;;5016220;28;20468;-86
2021/05/30 08:42:05;;;;;;;1.50;0.90;;;21.80;68.90;;;;;;5011788;28;20505;-83
2021/05/30 08:44:31;;;;;;;1.50;0.90;;;21.80;68.60;;;;;;5014040;28;20480;-84
2021/05/30 08:46:57;;;;;;;1.50;0.90;;;21.80;68.60;;;;;;5012901;28;20582;-83
2021/05/30 08:49:25;;;;;;;1.50;0.90;;;21.90;69.10;;;;;;5023629;28;20460;-83
2021/05/30 08:51:51;;;;;;;1.50;0.90;;;22.00;69.90;;;;;;5014703;28;20487;-83
2021/05/30 08:54:19;;;;;;;3.50;3.20;;;22.30;68.00;;;;;;5020561;28;20680;-83
2021/05/30 08:56:47;;;;;;;1.50;0.90;;;22.40;67.60;;;;;;5004979;28;20585;-83
2021/05/30 08:59:18;;;;;;;1.50;0.87;;;22.40;65.30;;;;;;5019114;28;20471;-84
2021/05/30 09:01:45;;;;;;;1.50;0.90;;;22.20;66.60;;;;;;5016454;28;20479;-85
2021/05/30 09:04:12;;;;;;;1.50;0.90;;;22.30;67.80;;;;;;5019392;28;20499;-83
2021/05/30 09:06:41;;;;;;;1.47;0.90;;;22.40;67.40;;;;;;5009889;28;20965;-81
2021/05/30 09:09:10;;;;;;;1.50;0.90;;;22.60;65.10;;;;;;5023644;28;20474;-82
2021/05/30 09:11:41;;;;;;;1.50;0.90;;;22.80;65.10;;;;;;5005738;28;20475;-84
2021/05/30 09:14:12;;;;;;;1.50;0.90;;;22.70;63.50;;;;;;5016851;28;20487;-86
2021/05/30 09:16:58;;;;;;;1.50;0.83;;;22.80;64.40;;;;;;5009501;28;20490;-84
2021/05/30 09:19:40;;;;;;;1.43;0.90;;;23.00;65.50;;;;;;5018901;28;20622;-83
2021/05/30 09:22:32;;;;;;;1.47;0.80;;;23.10;64.90;;;;;;5009489;28;20479;-84
2021/05/30 09:25:11;;;;;;;1.50;0.90;;;23.40;65.30;;;;;;5013178;28;20486;-84
2021/05/30 09:27:42;;;;;;;1.47;0.80;;;23.70;63.90;;;;;;5013009;28;20528;-82
2021/05/30 09:30:11;;;;;;;1.50;0.90;;;23.80;61.20;;;;;;5009980;28;20547;-83
2021/05/30 09:33:09;;;;;;;1.50;1.00;;;23.60;61.40;;;;;;5017310;28;20510;-82
2021/05/30 09:35:52;;;;;;;1.50;0.80;;;23.80;61.70;;;;;;4969017;28;20465;-82
2021/05/30 09:38:22;;;;;;;1.40;0.80;;;24.00;60.60;;;;;;4993058;28;20485;-82
2021/05/30 09:40:51;;;;;;;1.50;0.90;;;24.20;61.90;;;;;;4998350;28;20543;-82
2021/05/30 09:43:19;;;;;;;1.50;0.90;;;24.40;61.10;;;;;;5024105;28;20513;-82
2021/05/30 09:46:01;;;;;;;1.47;0.83;;;24.60;61.40;;;;;;5013165;28;20479;-83
2021/05/30 09:48:28;;;;;;;1.50;0.90;;;24.80;61.30;;;;;;5018514;28;20548;-84
2021/05/30 09:51:04;;;;;;;1.80;1.20;;;25.00;60.80;;;;;;5008894;28;20463;-84
2021/05/30 09:53:52;;;;;;;1.50;0.83;;;24.90;61.10;;;;;;5024248;28;21010;-83
2021/05/30 09:56:34;;;;;;;1.50;0.90;;;24.90;60.10;;;;;;5001773;28;20872;-85
2021/05/30 09:59:02;;;;;;;1.50;0.90;;;24.90;59.70;;;;;;5022100;28;20800;-84
2021/05/30 10:01:29;;;;;;;1.50;0.90;;;24.70;59.90;;;;;;5011805;28;20569;-84
2021/05/30 10:03:56;;;;;;;1.50;0.80;;;24.50;61.10;;;;;;5029885;28;20502;-81
2021/05/30 10:06:23;;;;;;;1.40;0.80;;;24.30;61.00;;;;;;5008576;28;20479;-84
2021/05/30 10:08:51;;;;;;;1.50;0.80;;;24.10;61.70;;;;;;5021868;28;20645;-82
2021/05/30 10:11:21;;;;;;;1.50;0.90;;;24.20;62.70;;;;;;5006133;28;20513;-88
2021/05/30 10:13:47;;;;;;;1.50;0.90;;;24.50;61.40;;;;;;5017804;28;20709;-82
2021/05/30 10:16:15;;;;;;;1.47;0.80;;;24.40;60.20;;;;;;4999608;28;20491;-82
2021/05/30 10:18:44;;;;;;;1.47;0.80;;;24.60;61.30;;;;;;5019948;28;20938;-81
2021/05/30 10:21:15;;;;;;;1.50;0.90;;;24.90;60.80;;;;;;4999713;28;20812;-84
2021/05/30 10:23:43;;;;;;;1.50;0.90;;;25.20;61.20;;;;;;5019845;28;20502;-84
2021/05/30 10:26:15;;;;;;;1.50;0.90;;;25.30;59.20;;;;;;4998705;28;20533;-82
2021/05/30 10:28:52;;;;;;;1.43;0.80;;;25.40;58.00;;;;;;5017938;28;20487;-82
2021/05/30 10:31:22;;;;;;;1.47;0.80;;;25.40;57.60;;;;;;5001038;28;20478;-82
2021/05/30 10:34:12;;;;;;;1.50;0.83;;;25.50;58.60;;;;;;5015750;28;20493;-81
2021/05/30 10:36:38;;;;;;;1.50;0.90;;;25.60;58.20;;;;;;4997057;28;20501;-84
2021/05/30 10:39:31;;;;;;;1.50;0.87;;;25.60;58.00;;;;;;5019244;28;20470;-84
2021/05/30 10:42:23;;;;;;;1.50;0.90;;;25.50;59.30;;;;;;4998011;28;20495;-81
2021/05/30 10:45:48;;;;;;;;;;;;;;;;;;;;;
2021/05/30 10:48:17;;;;;;;1.50;0.83;;;25.70;58.60;;;;;;4959005;28;20493;-84
2021/05/30 10:50:54;;;;;;;1.97;1.30;;;26.10;59.40;;;;;;5011436;28;20467;-85
2021/05/30 10:53:36;;;;;;;1.43;0.80;;;26.10;57.00;;;;;;4995952;28;20495;-85
2021/05/30 10:56:24;;;;;;;1.50;0.90;;;25.60;58.90;;;;;;5002111;28;20471;-84
2021/05/30 10:59:19;;;;;;;1.43;0.80;;;25.80;59.90;;;;;;5015477;28;21004;-84
2021/05/30 11:01:48;;;;;;;1.50;0.90;;;26.30;58.10;;;;;;5002864;28;20779;-82
2021/05/30 11:04:35;;;;;;;1.50;0.80;;;26.50;58.50;;;;;;5004548;28;20579;-81
2021/05/30 11:07:05;;;;;;;1.50;0.90;;;26.90;56.40;;;;;;5000665;28;20572;-82
2021/05/30 11:10:18;;;;;;;1.50;0.80;;;26.80;56.40;;;;;;5013189;28;20460;-83
2021/05/30 11:13:02;;;;;;;1.50;0.80;;;26.90;56.50;;;;;;5005052;28;20781;-83
2021/05/30 11:15:35;;;;;;;1.50;0.80;;;27.00;56.00;;;;;;5002769;28;20546;-86
2021/05/30 11:18:04;;;;;;;1.40;0.80;;;27.00;55.10;;;;;;5007812;28;20951;-86
2021/05/30 11:20:43;;;;;;;1.50;1.00;;;26.90;57.10;;;;;;5006522;28;20464;-84
2021/05/30 11:23:12;;;;;;;1.47;0.80;;;27.10;58.00;;;;;;5017937;28;20482;-85
2021/05/30 11:25:43;;;;;;;1.43;0.90;;;26.90;56.70;;;;;;5026012;28;20461;-85
2021/05/30 11:28:11;;;;;;;1.50;0.87;;;26.90;56.60;;;;;;5008765;28;20510;-86
2021/05/30 11:30:49;;;;;;;1.47;0.80;;;26.80;57.50;;;;;;5006954;28;21434;-86
2021/05/30 11:33:26;;;;;;;1.50;0.90;;;26.60;59.50;;;;;;5008578;28;20483;-85
2021/05/30 11:35:55;;;;;;;1.47;0.90;;;26.40;59.30;;;;;;5012788;28;20480;-84
2021/05/30 11:38:33;;;;;;;1.50;0.90;;;26.30;58.80;;;;;;5014868;28;20471;-86
2021/05/30 11:41:12;;;;;;;1.50;0.90;;;26.10;58.90;;;;;;5014069;28;20471;-86
2021/05/30 11:43:39;;;;;;;1.93;1.73;;;25.80;57.70;;;;;;5017060;28;20541;-85
2021/05/30 11:46:12;;;;;;;1.50;0.90;;;25.60;59.30;;;;;;5020191;28;20525;-85
2021/05/30 11:48:42;;;;;;;1.50;0.90;;;25.60;61.10;;;;;;5018937;28;20497;-86
2021/05/30 11:51:12;;;;;;;1.50;0.90;;;25.70;59.50;;;;;;5012152;28;20537;-84
2021/05/30 11:53:38;;;;;;;1.47;0.80;;;25.80;60.30;;;;;;5010142;28;20499;-84
2021/05/30 11:56:06;;;;;;;1.47;0.80;;;26.00;60.00;;;;;;5013796;28;20959;-84
2021/05/30 11:58:46;;;;;;;1.50;0.90;;;26.30;59.50;;;;;;5009181;28;20467;-83
2021/05/30 12:01:13;;;;;;;1.47;0.80;;;26.40;59.20;;;;;;5019718;28;20465;-83
2021/05/30 12:03:48;;;;;;;1.47;0.90;;;26.80;57.40;;;;;;5014464;28;20489;-83
2021/05/30 12:06:16;;;;;;;1.50;0.80;;;27.00;58.10;;;;;;5013850;28;20467;-84
2021/05/30 12:08:53;;;;;;;1.50;0.87;;;26.90;57.80;;;;;;5018978;28;20579;-83
2021/05/30 12:11:19;;;;;;;1.50;0.80;;;27.10;60.70;;;;;;5016122;28;20475;-84
2021/05/30 12:13:46;;;;;;;1.47;0.80;;;27.20;60.10;;;;;;5019616;28;20495;-84
2021/05/30 12:16:17;;;;;;;1.50;0.90;;;27.30;59.20;;;;;;5017822;28;20537;-85
2021/05/30 12:18:54;;;;;;;1.50;0.80;;;27.50;57.60;;;;;;5010960;28;20969;-86
2021/05/30 12:21:22;;;;;;;1.50;0.80;;;27.70;57.10;;;;;;5011543;28;20483;-85
2021/05/30 12:23:48;;;;;;;1.47;0.80;;;27.90;55.70;;;;;;5010288;28;20492;-85
2021/05/30 12:26:16;;;;;;;1.50;0.90;;;28.00;56.20;;;;;;5013134;28;20467;-85
2021/05/30 12:28:43;;;;;;;1.50;0.90;;;28.00;58.60;;;;;;5011995;28;21101;-85
2021/05/30 12:31:11;;;;;;;1.50;0.90;;;28.20;56.00;;;;;;5016624;28;20676;-83
2021/05/30 12:33:55;;;;;;;1.43;0.90;;;28.00;55.30;;;;;;5010969;28;20530;-85
2021/05/30 12:36:37;;;;;;;1.47;0.80;;;27.90;56.50;;;;;;5016608;28;20525;-85
2021/05/30 12:39:11;;;;;;;1.43;0.80;;;28.00;57.60;;;;;;4996724;28;20479;-85
2021/05/30 12:41:40;;;;;;;1.50;0.90;;;28.20;56.50;;;;;;5008438;28;20464;-85
2021/05/30 12:44:11;;;;;;;1.40;0.80;;;28.10;56.30;;;;;;5008133;28;20555;-84
2021/05/30 12:46:39;;;;;;;1.47;0.80;;;28.30;56.70;;;;;;5008033;28;21049;-84
2021/05/30 12:49:18;;;;;;;1.50;0.90;;;28.70;58.70;;;;;;5008925;28;20768;-83
2021/05/30 12:52:02;;;;;;;1.70;1.30;;;28.70;56.10;;;;;;5007626;28;20494;-83
2021/05/30 12:54:29;;;;;;;1.43;0.90;;;28.50;57.70;;;;;;5006439;28;21055;-85
2021/05/30 12:56:56;;;;;;;1.43;0.80;;;28.40;56.70;;;;;;5007184;28;20482;-85